Time;durP1;ratioP1;P1;durP2;ratioP2;P2;SDS_P1;SDS_P2;PMS_P1;PMS_P2;Temp;Humidity;BMP_temperature;BMP_pressure;BME280_temperature;BME280_humidity;BME280_pressure;Samples;Min_cycle;Max_cycle;Signal;HPM_P1;HPM_P2
2021/03/13 00:01:47;;;;;;;46.30;5.70;;;8.20;99.90;;;;;;5104771;28;20197;-73
2021/03/13 00:04:13;;;;;;;38.75;5.40;;;8.20;99.90;;;;;;5107584;27;20673;-74
2021/03/13 00:06:39;;;;;;;33.78;5.28;;;8.20;99.90;;;;;;5105976;27;20201;-73
2021/03/13 00:09:06;;;;;;;36.03;5.00;;;8.30;99.90;;;;;;5087117;27;20597;-73
2021/03/13 00:11:33;;;;;;;30.45;4.72;;;8.30;99.90;;;;;;5103953;28;20205;-74
2021/03/13 00:14:00;;;;;;;35.00;4.90;;;8.30;99.90;;;;;;5086814;27;20201;-74
2021/03/13 00:16:26;;;;;;;28.52;5.45;;;8.30;99.90;;;;;;5101608;28;20201;-73
2021/03/13 00:18:52;;;;;;;29.95;5.45;;;8.40;99.90;;;;;;5104285;28;20213;-74
2021/03/13 00:21:18;;;;;;;38.58;5.70;;;8.40;99.90;;;;;;5107591;28;20630;-73
2021/03/13 00:23:45;;;;;;;33.80;5.32;;;8.40;99.90;;;;;;5088482;27;20205;-74
2021/03/13 00:26:11;;;;;;;32.60;6.35;;;8.40;99.90;;;;;;5086956;28;20216;-74
2021/03/13 00:28:38;;;;;;;26.00;5.85;;;8.40;99.90;;;;;;5103284;27;20193;-75
2021/03/13 00:31:05;;;;;;;24.77;5.93;;;8.40;99.90;;;;;;5102839;27;20254;-74
2021/03/13 00:33:36;;;;;;;29.83;4.95;;;8.40;99.90;;;;;;5103527;27;20209;-73
2021/03/13 00:36:03;;;;;;;31.42;5.18;;;8.40;99.90;;;;;;5104106;27;20236;-74
2021/03/13 00:38:29;;;;;;;31.25;5.22;;;8.40;99.90;;;;;;5106096;27;20216;-73
2021/03/13 00:40:55;;;;;;;34.35;5.10;;;8.40;99.90;;;;;;5106550;27;20197;-74
2021/03/13 00:43:22;;;;;;;25.02;5.32;;;8.40;99.90;;;;;;5105125;27;20680;-74
2021/03/13 00:45:50;;;;;;;28.50;4.53;;;8.40;99.90;;;;;;5107048;27;20677;-74
2021/03/13 00:48:17;;;;;;;20.33;4.35;;;8.40;99.90;;;;;;5103994;27;20202;-74
2021/03/13 00:50:45;;;;;;;24.13;4.18;;;8.40;99.90;;;;;;5084877;27;20243;-73
2021/03/13 00:53:12;;;;;;;27.60;4.45;;;8.40;99.90;;;;;;5084978;28;20201;-75
2021/03/13 00:55:39;;;;;;;24.15;4.63;;;8.40;99.90;;;;;;5088811;28;20613;-74
2021/03/13 00:58:08;;;;;;;20.70;3.90;;;8.40;99.90;;;;;;5087925;28;20220;-73
2021/03/13 01:00:39;;;;;;;21.77;3.97;;;8.40;99.90;;;;;;5086857;28;20213;-74
2021/03/13 01:03:09;;;;;;;19.20;4.03;;;8.40;99.90;;;;;;5084012;28;20224;-74
2021/03/13 01:05:39;;;;;;;21.52;3.38;;;8.40;99.90;;;;;;5086783;27;20205;-73
2021/03/13 01:08:07;;;;;;;17.27;3.30;;;8.30;99.90;;;;;;5083769;28;20573;-74
2021/03/13 01:10:35;;;;;;;20.30;3.83;;;8.40;99.90;;;;;;5088271;28;20197;-73
2021/03/13 01:13:02;;;;;;;13.90;3.13;;;8.30;99.90;;;;;;5086103;28;20208;-74
2021/03/13 01:15:29;;;;;;;11.48;3.20;;;8.30;99.90;;;;;;5086378;27;20289;-75
2021/03/13 01:17:57;;;;;;;11.63;3.25;;;8.30;99.90;;;;;;5088595;28;20215;-73
2021/03/13 01:20:26;;;;;;;13.60;3.35;;;8.30;99.90;;;;;;5106515;27;20197;-74
2021/03/13 01:22:54;;;;;;;22.55;3.60;;;8.20;99.90;;;;;;5087557;28;20202;-74
2021/03/13 01:25:21;;;;;;;18.50;3.88;;;8.20;99.90;;;;;;5085901;28;20288;-73
2021/03/13 01:27:48;;;;;;;14.10;3.28;;;8.10;99.90;;;;;;5085911;28;20232;-75
2021/03/13 01:30:19;;;;;;;14.25;3.70;;;8.00;99.90;;;;;;5105654;27;20193;-74
2021/03/13 01:32:46;;;;;;;24.75;4.50;;;7.90;99.90;;;;;;5081041;28;20213;-74
2021/03/13 01:35:14;;;;;;;19.92;5.18;;;7.90;99.90;;;;;;5085701;28;20193;-74
2021/03/13 01:37:42;;;;;;;23.77;5.40;;;7.80;99.90;;;;;;5105414;28;21006;-74
2021/03/13 01:40:14;;;;;;;16.50;5.35;;;7.80;99.90;;;;;;5083684;28;20201;-75
2021/03/13 01:42:43;;;;;;;20.77;5.57;;;7.80;99.90;;;;;;5087046;28;20239;-73
2021/03/13 01:45:15;;;;;;;20.77;5.50;;;7.70;99.90;;;;;;5083478;28;20205;-73
2021/03/13 01:47:43;;;;;;;23.02;5.55;;;7.70;99.90;;;;;;5084511;28;20223;-74
2021/03/13 01:50:17;;;;;;;16.92;4.95;;;7.60;99.90;;;;;;5088269;28;20266;-74
2021/03/13 01:52:45;;;;;;;19.25;5.00;;;7.50;99.90;;;;;;5101388;28;20550;-73
2021/03/13 01:55:13;;;;;;;13.10;4.75;;;7.50;99.90;;;;;;5101884;28;20201;-74
2021/03/13 01:57:41;;;;;;;19.08;4.93;;;7.40;99.90;;;;;;5086809;28;20232;-75
2021/03/13 02:00:12;;;;;;;19.88;4.95;;;7.40;99.90;;;;;;5085787;28;20552;-74
2021/03/13 02:02:42;;;;;;;14.70;5.28;;;7.30;99.90;;;;;;5100845;28;20205;-74
2021/03/13 02:05:18;;;;;;;24.73;5.85;;;7.30;99.90;;;;;;5087299;28;20210;-74
2021/03/13 02:07:56;;;;;;;17.02;5.55;;;7.30;99.90;;;;;;5103490;28;20185;-74
2021/03/13 02:10:33;;;;;;;18.67;7.40;;;7.20;99.90;;;;;;5101718;28;20669;-74
2021/03/13 02:13:08;;;;;;;20.92;8.10;;;7.20;99.90;;;;;;5102357;28;20209;-74
2021/03/13 02:15:45;;;;;;;20.73;8.05;;;7.20;99.90;;;;;;5084943;28;20215;-74
2021/03/13 02:18:23;;;;;;;20.90;7.75;;;7.10;99.90;;;;;;5083163;28;20209;-74
2021/03/13 02:21:04;;;;;;;21.38;8.48;;;7.10;99.90;;;;;;5097851;28;20547;-74
2021/03/13 02:23:48;;;;;;;19.13;8.00;;;7.10;99.90;;;;;;5101750;28;20204;-74
2021/03/13 02:26:41;;;;;;;18.42;8.02;;;7.10;99.90;;;;;;5102705;28;20212;-73
2021/03/13 02:29:45;;;;;;;19.73;8.02;;;7.00;99.90;;;;;;5101747;28;20208;-74
2021/03/13 02:32:25;;;;;;;17.90;7.47;;;7.00;99.90;;;;;;5083097;28;20221;-74
2021/03/13 02:34:58;;;;;;;18.33;7.25;;;7.00;99.90;;;;;;5082416;28;20230;-74
2021/03/13 02:37:29;;;;;;;17.60;8.15;;;6.90;99.90;;;;;;5083135;28;20229;-73
2021/03/13 02:39:57;;;;;;;24.88;8.93;;;7.00;99.90;;;;;;5087414;28;20193;-73
2021/03/13 02:42:26;;;;;;;31.63;10.30;;;7.00;99.90;;;;;;5087983;28;20566;-74
2021/03/13 02:44:54;;;;;;;24.77;10.77;;;6.90;99.90;;;;;;5089597;28;20208;-74
2021/03/13 02:47:28;;;;;;;21.75;10.80;;;7.00;99.90;;;;;;5086569;27;20211;-74
2021/03/13 02:50:01;;;;;;;26.83;10.02;;;6.90;99.90;;;;;;5088636;27;20309;-74
2021/03/13 02:52:37;;;;;;;21.17;10.65;;;6.90;99.90;;;;;;5101139;28;20209;-74
2021/03/13 02:55:12;;;;;;;20.75;11.23;;;6.90;99.90;;;;;;5089630;28;20213;-74
2021/03/13 02:57:43;;;;;;;24.00;11.70;;;6.90;99.90;;;;;;5086745;28;20236;-74
2021/03/13 03:00:15;;;;;;;24.30;11.65;;;6.90;99.90;;;;;;5088503;28;20208;-74
2021/03/13 03:02:45;;;;;;;21.60;11.32;;;6.90;99.90;;;;;;5103481;27;20229;-74
2021/03/13 03:05:12;;;;;;;28.83;10.63;;;6.90;99.90;;;;;;5107069;27;20209;-74
2021/03/13 03:07:40;;;;;;;23.25;11.40;;;6.90;99.90;;;;;;5086124;28;20205;-73
2021/03/13 03:10:13;;;;;;;25.83;11.50;;;6.80;99.90;;;;;;5085801;28;20628;-73
2021/03/13 03:12:43;;;;;;;19.75;12.40;;;6.80;99.90;;;;;;5089937;28;20219;-73
2021/03/13 03:15:13;;;;;;;23.50;11.18;;;6.90;99.90;;;;;;5086279;28;20296;-73
2021/03/13 03:17:40;;;;;;;24.98;10.57;;;6.90;99.90;;;;;;5087649;28;20556;-74
2021/03/13 03:20:11;;;;;;;19.67;9.80;;;6.90;99.90;;;;;;5087542;27;20288;-73
2021/03/13 03:22:40;;;;;;;24.33;10.80;;;6.90;99.90;;;;;;5087547;28;20205;-73
2021/03/13 03:25:14;;;;;;;21.73;10.70;;;6.90;99.90;;;;;;5088462;27;20205;-74
2021/03/13 03:27:50;;;;;;;21.77;11.82;;;6.90;99.90;;;;;;5087270;28;20216;-74
2021/03/13 03:30:23;;;;;;;19.38;11.15;;;6.90;99.90;;;;;;5105227;28;20208;-74
2021/03/13 03:32:50;;;;;;;24.88;12.07;;;6.90;99.90;;;;;;5088205;28;20197;-73
2021/03/13 03:35:18;;;;;;;20.77;11.32;;;7.00;99.90;;;;;;5090327;27;20208;-74
2021/03/13 03:37:45;;;;;;;25.05;12.02;;;6.90;99.90;;;;;;5087363;28;20696;-74
2021/03/13 03:40:15;;;;;;;25.48;12.23;;;7.00;99.90;;;;;;5088103;28;20228;-74
2021/03/13 03:42:47;;;;;;;22.27;12.25;;;7.00;99.90;;;;;;5104959;27;20201;-74
2021/03/13 03:45:17;;;;;;;21.85;11.85;;;7.00;99.90;;;;;;5102094;27;20324;-74
2021/03/13 03:47:46;;;;;;;24.83;11.15;;;7.00;99.90;;;;;;5085142;28;20245;-74
2021/03/13 03:50:14;;;;;;;20.13;10.95;;;7.00;99.90;;;;;;5088960;27;20211;-74
2021/03/13 03:53:07;;;;;;;21.27;10.50;;;7.00;99.90;;;;;;5103593;27;20737;-73
2021/03/13 03:55:38;;;;;;;20.58;10.13;;;7.00;99.90;;;;;;5106805;28;20558;-74
2021/03/13 03:58:08;;;;;;;23.92;10.93;;;7.00;99.90;;;;;;5102329;27;20216;-74
2021/03/13 04:00:36;;;;;;;18.15;8.27;;;7.00;99.90;;;;;;5102872;27;20208;-73
2021/03/13 04:03:10;;;;;;;17.25;9.18;;;7.00;99.90;;;;;;5102767;27;20201;-74
2021/03/13 04:05:39;;;;;;;18.83;8.50;;;7.00;99.90;;;;;;5087175;28;22163;-74
2021/03/13 04:08:06;;;;;;;19.80;7.97;;;7.10;99.90;;;;;;5103925;27;20198;-74
2021/03/13 04:10:33;;;;;;;23.98;8.38;;;7.10;99.90;;;;;;5085686;27;20208;-73
2021/03/13 04:13:01;;;;;;;16.10;7.22;;;7.10;99.90;;;;;;5103700;27;20212;-73
2021/03/13 04:15:28;;;;;;;15.20;6.47;;;7.10;99.90;;;;;;5104784;27;20197;-74
2021/03/13 04:17:55;;;;;;;18.45;5.97;;;7.10;99.90;;;;;;5102562;28;20213;-73
2021/03/13 04:20:23;;;;;;;15.25;5.30;;;7.10;99.90;;;;;;5105460;27;20606;-74
2021/03/13 04:22:53;;;;;;;12.23;5.47;;;7.10;99.90;;;;;;5105290;27;20262;-74
2021/03/13 04:25:19;;;;;;;12.75;4.75;;;7.10;99.90;;;;;;5105000;28;20205;-73
2021/03/13 04:27:46;;;;;;;11.73;4.82;;;7.10;99.90;;;;;;5102660;27;20213;-73
2021/03/13 04:30:15;;;;;;;10.05;5.22;;;7.20;99.90;;;;;;5102906;28;20205;-74
2021/03/13 04:32:44;;;;;;;10.82;4.50;;;7.20;99.90;;;;;;5101789;27;20669;-73
2021/03/13 04:35:11;;;;;;;9.88;4.35;;;7.20;99.90;;;;;;5104730;27;20192;-73
2021/03/13 04:37:39;;;;;;;14.23;4.50;;;7.20;99.90;;;;;;5086578;28;20256;-73
2021/03/13 04:40:08;;;;;;;12.48;4.68;;;7.20;99.90;;;;;;5085930;28;20653;-74
2021/03/13 04:42:36;;;;;;;13.98;4.53;;;7.30;99.90;;;;;;5099330;28;20669;-74
2021/03/13 04:45:03;;;;;;;12.23;4.30;;;7.30;99.90;;;;;;5103029;28;20197;-74
2021/03/13 04:47:30;;;;;;;13.02;4.70;;;7.30;99.90;;;;;;5105444;27;20216;-73
2021/03/13 04:49:59;;;;;;;12.73;4.43;;;7.30;99.90;;;;;;5086856;28;20209;-73
2021/03/13 04:52:25;;;;;;;16.05;3.72;;;7.30;99.90;;;;;;5103558;27;20203;-73
2021/03/13 04:54:53;;;;;;;16.27;4.00;;;7.30;99.90;;;;;;5104129;27;20316;-74
2021/03/13 04:57:19;;;;;;;9.18;3.55;;;7.30;99.90;;;;;;5104488;27;20209;-73
2021/03/13 04:59:45;;;;;;;16.95;3.78;;;7.30;99.90;;;;;;5103317;28;20266;-73
2021/03/13 05:02:12;;;;;;;17.05;3.65;;;7.30;99.90;;;;;;5100936;27;21059;-72
2021/03/13 05:04:38;;;;;;;10.27;2.92;;;7.30;99.90;;;;;;5107640;28;20193;-73
2021/03/13 05:07:05;;;;;;;15.25;2.80;;;7.30;99.90;;;;;;5087600;28;20206;-74
2021/03/13 05:09:31;;;;;;;12.38;2.88;;;7.30;99.90;;;;;;5087780;28;20208;-73
2021/03/13 05:11:59;;;;;;;10.73;2.97;;;7.30;99.90;;;;;;5104246;28;20211;-73
2021/03/13 05:14:26;;;;;;;16.88;3.20;;;7.30;99.90;;;;;;5105094;27;20212;-73
2021/03/13 05:16:52;;;;;;;18.02;3.20;;;7.30;99.90;;;;;;5105477;27;20193;-73
2021/03/13 05:19:18;;;;;;;9.13;2.88;;;7.30;99.90;;;;;;5107703;27;20209;-73
2021/03/13 05:21:45;;;;;;;19.63;3.28;;;7.20;99.90;;;;;;5104476;28;20200;-73
2021/03/13 05:24:11;;;;;;;15.00;2.53;;;7.20;99.90;;;;;;5106113;27;20635;-76
2021/03/13 05:26:38;;;;;;;20.90;2.55;;;7.10;99.90;;;;;;5106340;27;20202;-74
2021/03/13 05:29:05;;;;;;;16.23;3.20;;;7.10;99.90;;;;;;5086197;28;20291;-73
2021/03/13 05:31:32;;;;;;;23.35;3.80;;;7.10;99.90;;;;;;5101398;28;20212;-73
2021/03/13 05:33:58;;;;;;;21.00;3.45;;;7.10;99.90;;;;;;5106467;28;20911;-73
2021/03/13 05:36:24;;;;;;;23.92;2.83;;;7.10;99.90;;;;;;5086358;28;21280;-73
2021/03/13 05:38:50;;;;;;;16.77;2.42;;;7.00;99.90;;;;;;5104594;28;20217;-73
2021/03/13 05:41:18;;;;;;;25.67;1.77;;;7.00;99.90;;;;;;5104520;28;20201;-73
2021/03/13 05:43:46;;;;;;;12.32;1.83;;;7.00;99.90;;;;;;5104743;28;20201;-74
2021/03/13 05:46:14;;;;;;;15.80;2.00;;;6.90;99.90;;;;;;5081433;28;20216;-74
2021/03/13 05:48:43;;;;;;;19.20;2.15;;;6.80;99.90;;;;;;5103182;28;20197;-74
2021/03/13 05:51:12;;;;;;;21.23;2.10;;;6.80;99.90;;;;;;5086933;28;20225;-73
2021/03/13 05:53:41;;;;;;;25.83;2.35;;;6.70;99.90;;;;;;5105700;28;20198;-73
2021/03/13 05:56:08;;;;;;;22.20;2.28;;;6.70;99.90;;;;;;5087341;28;20212;-73
2021/03/13 05:58:37;;;;;;;24.13;2.70;;;6.70;99.90;;;;;;5104672;28;20221;-76
2021/03/13 06:01:03;;;;;;;22.73;2.83;;;6.60;99.90;;;;;;5100927;28;20206;-75
2021/03/13 06:03:33;;;;;;;23.58;2.85;;;6.70;99.90;;;;;;5098372;28;20669;-76
2021/03/13 06:06:00;;;;;;;23.38;3.42;;;6.70;99.90;;;;;;5103963;28;20636;-76
2021/03/13 06:08:27;;;;;;;24.52;2.97;;;6.70;99.90;;;;;;5087650;28;20286;-74
2021/03/13 06:10:55;;;;;;;26.02;3.03;;;6.70;99.90;;;;;;5106847;28;20201;-74
2021/03/13 06:13:22;;;;;;;27.35;3.45;;;6.70;99.90;;;;;;5108373;27;20200;-74
2021/03/13 06:15:48;;;;;;;28.67;3.60;;;6.70;99.90;;;;;;5110986;27;20254;-75
2021/03/13 06:18:15;;;;;;;24.60;3.45;;;6.70;99.90;;;;;;5108605;27;20884;-73
2021/03/13 06:20:42;;;;;;;30.17;4.05;;;6.70;99.90;;;;;;5087817;28;20205;-74
2021/03/13 06:23:15;;;;;;;31.83;3.88;;;6.80;99.90;;;;;;5104690;27;20198;-76
2021/03/13 06:25:42;;;;;;;24.27;3.95;;;6.80;99.90;;;;;;5107117;27;20686;-74
2021/03/13 06:28:14;;;;;;;37.13;4.10;;;6.80;99.90;;;;;;5106340;28;20657;-74
2021/03/13 06:30:43;;;;;;;34.47;4.35;;;6.90;99.90;;;;;;5088349;28;20212;-76
2021/03/13 06:33:24;;;;;;;25.77;3.63;;;6.90;99.90;;;;;;5108411;27;20204;-74
2021/03/13 06:35:53;;;;;;;28.30;4.18;;;7.00;99.90;;;;;;5091179;27;20209;-75
2021/03/13 06:38:21;;;;;;;23.98;3.70;;;7.00;99.90;;;;;;5108587;27;20209;-74
2021/03/13 06:40:49;;;;;;;31.80;5.05;;;7.00;99.90;;;;;;5107028;27;20201;-78
2021/03/13 06:43:24;;;;;;;30.88;4.07;;;7.00;99.90;;;;;;5108561;27;20205;-76
2021/03/13 06:45:57;;;;;;;34.85;4.20;;;7.10;99.90;;;;;;5102372;27;20198;-76
2021/03/13 06:48:36;;;;;;;38.22;4.05;;;7.10;99.90;;;;;;5103885;27;20198;-73
2021/03/13 06:51:24;;;;;;;34.30;4.22;;;7.10;99.90;;;;;;5108736;27;20205;-75
2021/03/13 06:54:02;;;;;;;44.75;4.55;;;7.10;99.90;;;;;;5087794;27;20205;-76
2021/03/13 06:56:29;;;;;;;34.83;4.40;;;7.10;99.90;;;;;;5106476;27;20201;-74
2021/03/13 06:58:56;;;;;;;36.70;4.35;;;7.20;99.90;;;;;;5106573;27;20232;-76
2021/03/13 07:01:28;;;;;;;27.23;4.40;;;7.20;99.90;;;;;;5107328;28;20207;-75
2021/03/13 07:03:54;;;;;;;33.33;5.13;;;7.20;99.90;;;;;;5104562;27;20228;-75
2021/03/13 07:06:22;;;;;;;28.73;4.18;;;7.20;99.90;;;;;;5087853;28;20223;-74
2021/03/13 07:08:50;;;;;;;36.97;4.40;;;7.20;99.90;;;;;;5100560;27;20190;-74
2021/03/13 07:11:20;;;;;;;29.58;4.32;;;7.30;99.90;;;;;;5106457;27;20204;-75
2021/03/13 07:13:50;;;;;;;24.75;3.63;;;7.30;99.90;;;;;;5106759;27;20220;-75
2021/03/13 07:16:40;;;;;;;37.88;4.80;;;7.30;99.90;;;;;;5109297;27;20201;-74
2021/03/13 07:19:08;;;;;;;38.20;6.10;;;7.30;99.90;;;;;;5107815;27;20569;-74
2021/03/13 07:21:37;;;;;;;29.00;4.32;;;7.30;99.90;;;;;;5094172;28;20670;-75
2021/03/13 07:24:06;;;;;;;33.90;4.47;;;7.30;99.90;;;;;;5107509;27;20751;-75
2021/03/13 07:26:36;;;;;;;28.90;4.78;;;7.30;99.90;;;;;;5106376;28;20608;-76
2021/03/13 07:29:04;;;;;;;38.03;4.93;;;7.30;99.90;;;;;;5107305;28;20197;-75
2021/03/13 07:31:35;;;;;;;40.03;4.60;;;7.30;99.90;;;;;;5105053;28;20709;-75
2021/03/13 07:34:05;;;;;;;32.03;4.72;;;7.40;99.90;;;;;;5107397;27;20205;-75
2021/03/13 07:36:37;;;;;;;32.35;3.70;;;7.40;99.90;;;;;;5089945;28;20224;-76
2021/03/13 07:39:14;;;;;;;38.95;4.68;;;7.40;99.90;;;;;;5108066;27;20217;-74
2021/03/13 07:41:50;;;;;;;40.33;5.10;;;7.40;99.90;;;;;;5105082;28;20201;-74
2021/03/13 07:44:17;;;;;;;35.30;5.32;;;7.40;99.90;;;;;;5083007;28;20249;-74
2021/03/13 07:46:44;;;;;;;34.78;6.18;;;7.40;99.90;;;;;;5087893;28;20296;-74
2021/03/13 07:49:12;;;;;;;30.67;4.38;;;7.50;99.90;;;;;;5107646;27;20201;-75
2021/03/13 07:51:40;;;;;;;29.08;4.15;;;7.50;99.90;;;;;;5104277;27;20194;-75
2021/03/13 07:54:08;;;;;;;34.42;4.55;;;7.50;99.90;;;;;;5106377;28;20201;-75
2021/03/13 07:56:38;;;;;;;31.45;4.13;;;7.50;99.90;;;;;;5107103;27;20750;-76
2021/03/13 07:59:09;;;;;;;37.28;5.53;;;7.50;99.90;;;;;;5104319;28;20308;-74
2021/03/13 08:01:49;;;;;;;40.30;5.10;;;7.50;99.90;;;;;;5087646;27;20610;-74
2021/03/13 08:04:56;;;;;;;34.72;4.75;;;7.50;99.90;;;;;;5106608;28;20601;-74
2021/03/13 08:07:24;;;;;;;30.02;4.32;;;7.50;99.90;;;;;;5101406;27;20193;-75
2021/03/13 08:09:51;;;;;;;34.72;5.53;;;7.60;99.90;;;;;;5088359;27;20322;-74
2021/03/13 08:12:40;;;;;;;33.95;4.45;;;7.60;99.90;;;;;;5103044;28;20216;-73
2021/03/13 08:15:37;;;;;;;37.83;4.55;;;7.60;99.90;;;;;;5101649;28;20662;-74
2021/03/13 08:18:04;;;;;;;27.55;4.57;;;7.60;99.90;;;;;;5102159;27;20306;-76
2021/03/13 08:20:31;;;;;;;40.80;4.95;;;7.60;99.90;;;;;;5105124;27;20212;-75
2021/03/13 08:23:19;;;;;;;31.40;4.63;;;7.60;99.90;;;;;;5085352;28;20228;-74
2021/03/13 08:25:53;;;;;;;27.67;4.47;;;7.60;99.90;;;;;;5087112;27;20209;-75
2021/03/13 08:28:55;;;;;;;29.23;4.28;;;7.70;99.90;;;;;;5089011;27;20210;-75
2021/03/13 08:31:36;;;;;;;28.85;4.75;;;7.70;99.90;;;;;;5084652;28;20212;-76
2021/03/13 08:34:36;;;;;;;31.75;4.88;;;7.60;99.90;;;;;;5084424;28;20204;-75
2021/03/13 08:37:19;;;;;;;31.67;4.45;;;7.70;99.90;;;;;;5107904;27;20599;-74
2021/03/13 08:39:47;;;;;;;30.15;4.88;;;7.70;99.90;;;;;;5102574;28;20629;-74
2021/03/13 08:42:32;;;;;;;41.40;5.40;;;7.70;99.90;;;;;;5089296;28;20212;-75
2021/03/13 08:45:15;;;;;;;28.63;4.60;;;7.70;99.90;;;;;;5106771;27;20201;-75
2021/03/13 08:47:51;;;;;;;32.00;4.85;;;7.70;99.90;;;;;;5105685;27;20654;-75
2021/03/13 08:50:52;;;;;;;40.08;4.35;;;7.70;99.90;;;;;;5104390;27;20284;-74
2021/03/13 08:53:35;;;;;;;46.95;6.03;;;7.70;99.90;;;;;;5096928;27;20287;-74
2021/03/13 08:56:05;;;;;;;39.47;5.00;;;7.70;99.90;;;;;;5086539;28;20201;-74
2021/03/13 08:58:42;;;;;;;29.23;4.88;;;7.70;99.90;;;;;;5088058;28;20209;-75
2021/03/13 09:01:19;;;;;;;33.42;4.90;;;7.70;99.90;;;;;;5103630;28;20662;-74
2021/03/13 09:03:50;;;;;;;40.50;5.40;;;7.70;99.90;;;;;;5086226;28;20673;-74
2021/03/13 09:06:18;;;;;;;31.10;4.85;;;7.70;99.90;;;;;;5104931;28;20197;-73
2021/03/13 09:08:45;;;;;;;34.33;4.78;;;7.60;99.90;;;;;;5090997;27;20677;-74
2021/03/13 09:11:12;;;;;;;30.63;5.10;;;7.70;99.90;;;;;;5106037;28;20378;-75
2021/03/13 09:13:39;;;;;;;36.35;4.80;;;7.70;99.90;;;;;;5086263;28;20209;-74
2021/03/13 09:16:16;;;;;;;38.25;5.32;;;7.70;99.90;;;;;;5104968;27;20209;-75
2021/03/13 09:18:54;;;;;;;39.42;5.65;;;7.60;99.90;;;;;;5086902;28;20334;-74
2021/03/13 09:21:44;;;;;;;33.95;4.82;;;7.70;99.90;;;;;;5089559;27;20211;-75
2021/03/13 09:24:12;;;;;;;39.97;5.80;;;7.70;99.90;;;;;;5102150;27;20711;-76
2021/03/13 09:26:40;;;;;;;38.53;4.90;;;7.70;99.90;;;;;;5105035;28;20192;-75
2021/03/13 09:29:07;;;;;;;35.75;4.88;;;7.70;99.90;;;;;;5087180;27;20216;-74
2021/03/13 09:31:34;;;;;;;33.72;5.03;;;7.70;99.90;;;;;;5105071;27;20562;-74
2021/03/13 09:34:20;;;;;;;29.58;4.65;;;7.70;99.90;;;;;;5104599;28;20219;-74
2021/03/13 09:36:48;;;;;;;33.20;4.90;;;7.80;99.90;;;;;;5103152;28;20708;-75
2021/03/13 09:39:21;;;;;;;37.15;5.40;;;7.80;99.90;;;;;;5106425;28;20224;-75
2021/03/13 09:42:17;;;;;;;30.75;4.30;;;7.90;99.90;;;;;;5106745;28;20219;-74
2021/03/13 09:44:46;;;;;;;28.02;4.63;;;7.90;99.90;;;;;;5060752;28;20754;-74
2021/03/13 09:47:25;;;;;;;32.90;4.85;;;8.00;99.90;;;;;;5102691;28;20201;-75
2021/03/13 09:49:53;;;;;;;34.92;4.55;;;8.00;99.90;;;;;;5104107;28;20196;-78
2021/03/13 09:52:24;;;;;;;25.80;4.88;;;8.10;99.90;;;;;;5085240;28;20193;-74
2021/03/13 09:54:59;;;;;;;32.80;4.55;;;8.20;99.90;;;;;;5103669;28;20197;-74
2021/03/13 09:57:27;;;;;;;36.67;5.18;;;8.20;99.90;;;;;;5103979;28;20210;-74
2021/03/13 09:59:55;;;;;;;37.55;5.18;;;8.30;99.90;;;;;;5102132;28;20205;-75
2021/03/13 10:02:22;;;;;;;33.63;5.28;;;8.30;99.90;;;;;;5087758;28;20635;-76
2021/03/13 10:04:50;;;;;;;39.20;6.53;;;8.30;99.90;;;;;;5089245;28;20212;-75
2021/03/13 10:07:17;;;;;;;44.42;5.72;;;8.30;99.90;;;;;;5106886;28;20196;-75
2021/03/13 10:09:54;;;;;;;38.55;4.85;;;8.30;99.90;;;;;;5103303;28;20201;-75
2021/03/13 10:12:30;;;;;;;44.97;5.53;;;8.30;99.90;;;;;;5070073;28;20211;-74
2021/03/13 10:15:10;;;;;;;32.08;5.20;;;8.30;99.90;;;;;;5103785;28;20565;-74
2021/03/13 10:17:53;;;;;;;38.28;5.13;;;8.30;99.90;;;;;;5101920;28;20217;-74
2021/03/13 10:20:21;;;;;;;36.15;5.13;;;8.30;99.90;;;;;;5098553;28;20228;-74
2021/03/13 10:22:48;;;;;;;45.78;5.65;;;8.30;99.90;;;;;;5102267;28;20198;-74
2021/03/13 10:25:15;;;;;;;35.42;5.88;;;8.30;99.90;;;;;;5103109;28;20212;-74
2021/03/13 10:27:43;;;;;;;47.13;6.00;;;8.30;99.90;;;;;;5082570;28;20209;-74
2021/03/13 10:30:11;;;;;;;32.33;4.78;;;8.30;99.90;;;;;;5103216;28;20206;-74
2021/03/13 10:32:39;;;;;;;46.30;5.55;;;8.30;99.90;;;;;;5103211;28;20186;-73
2021/03/13 10:35:20;;;;;;;44.50;5.53;;;8.20;99.90;;;;;;5105756;28;20276;-74
2021/03/13 10:37:48;;;;;;;34.80;5.05;;;8.10;99.90;;;;;;5085609;28;20642;-74
2021/03/13 10:40:34;;;;;;;33.13;4.47;;;7.90;99.90;;;;;;5102376;28;20221;-74
2021/03/13 10:43:19;;;;;;;37.88;4.93;;;7.70;99.90;;;;;;5104496;28;20252;-74
2021/03/13 10:46:00;;;;;;;36.17;5.30;;;7.50;99.90;;;;;;5079999;28;20219;-74
2021/03/13 10:48:28;;;;;;;42.60;5.32;;;7.40;99.90;;;;;;5107281;28;20205;-74
2021/03/13 10:50:55;;;;;;;38.35;4.82;;;7.30;99.90;;;;;;5086053;28;20274;-75
2021/03/13 10:53:31;;;;;;;42.92;5.20;;;7.30;99.90;;;;;;5105143;28;20197;-74
2021/03/13 10:55:59;;;;;;;50.22;5.65;;;7.20;99.90;;;;;;5086902;28;20576;-74
2021/03/13 10:58:27;;;;;;;40.35;4.97;;;7.20;99.90;;;;;;5084715;28;20693;-74
2021/03/13 11:00:54;;;;;;;39.60;4.80;;;7.10;99.90;;;;;;5084125;28;20240;-73
2021/03/13 11:03:21;;;;;;;44.45;4.97;;;7.10;99.90;;;;;;5093740;28;20204;-74
2021/03/13 11:05:50;;;;;;;35.15;4.50;;;7.10;99.90;;;;;;5108145;27;20216;-74
2021/03/13 11:08:17;;;;;;;38.88;4.15;;;7.10;99.90;;;;;;5109940;27;20222;-75
2021/03/13 11:10:44;;;;;;;36.55;3.90;;;7.10;99.90;;;;;;5109978;27;20201;-74
2021/03/13 11:13:10;;;;;;;28.92;3.53;;;7.10;99.90;;;;;;5107599;28;20227;-75
2021/03/13 11:15:38;;;;;;;24.42;3.38;;;7.00;99.90;;;;;;5107368;27;20585;-75
2021/03/13 11:18:06;;;;;;;37.22;4.45;;;7.00;99.90;;;;;;5106427;27;20206;-75
2021/03/13 11:20:32;;;;;;;38.88;3.95;;;7.00;99.90;;;;;;5090394;28;20225;-74
2021/03/13 11:23:00;;;;;;;35.90;4.32;;;6.90;99.90;;;;;;5109745;27;20201;-75
2021/03/13 11:25:26;;;;;;;35.35;4.30;;;6.90;99.90;;;;;;5105858;27;20204;-74
2021/03/13 11:27:53;;;;;;;35.78;4.95;;;7.00;99.90;;;;;;5107512;27;20205;-74
2021/03/13 11:30:21;;;;;;;48.72;4.78;;;7.10;99.90;;;;;;5091680;28;20695;-75
2021/03/13 11:32:49;;;;;;;33.38;4.70;;;7.20;99.90;;;;;;5107517;27;20221;-75
2021/03/13 11:35:17;;;;;;;36.15;4.75;;;7.30;99.90;;;;;;5087902;27;20209;-74
2021/03/13 11:37:44;;;;;;;36.50;5.20;;;7.50;99.90;;;;;;5107392;27;20753;-75
2021/03/13 11:40:11;;;;;;;33.97;4.63;;;7.70;99.90;;;;;;5104980;28;20225;-75
2021/03/13 11:42:38;;;;;;;28.77;3.88;;;7.80;99.90;;;;;;5106678;27;20227;-74
2021/03/13 11:45:09;;;;;;;37.10;4.15;;;7.90;99.90;;;;;;5108854;27;20207;-75
2021/03/13 11:47:36;;;;;;;26.08;4.40;;;8.10;99.90;;;;;;5110173;27;20197;-75
2021/03/13 11:50:05;;;;;;;35.05;4.35;;;8.20;99.90;;;;;;5106918;27;20654;-75
2021/03/13 11:52:32;;;;;;;27.02;4.45;;;8.30;99.90;;;;;;5088628;27;20205;-74
2021/03/13 11:54:59;;;;;;;27.02;3.95;;;8.40;99.90;;;;;;5093174;27;20201;-76
2021/03/13 11:57:25;;;;;;;22.88;4.22;;;8.40;99.90;;;;;;5090162;27;20665;-75
2021/03/13 11:59:52;;;;;;;12.52;2.45;;;8.50;99.90;;;;;;5087914;27;20225;-75
2021/03/13 12:02:19;;;;;;;13.85;2.20;;;8.40;99.90;;;;;;5087493;28;20200;-75
2021/03/13 12:04:47;;;;;;;13.85;1.77;;;8.10;99.90;;;;;;5089526;28;20606;-75
2021/03/13 12:07:15;;;;;;;13.60;2.47;;;7.90;99.90;;;;;;5107751;27;20212;-74
2021/03/13 12:09:41;;;;;;;27.23;2.83;;;7.60;99.90;;;;;;5087152;27;20210;-74
2021/03/13 12:12:10;;;;;;;27.13;3.17;;;7.40;99.90;;;;;;5107076;27;20271;-76
2021/03/13 12:14:37;;;;;;;32.17;4.22;;;7.30;99.90;;;;;;5100889;27;20209;-76
2021/03/13 12:17:06;;;;;;;39.90;4.47;;;7.20;99.90;;;;;;5102509;28;20197;-75
2021/03/13 12:19:33;;;;;;;30.02;3.92;;;7.20;99.90;;;;;;5081241;28;20255;-74
2021/03/13 12:22:01;;;;;;;36.40;4.90;;;7.10;99.90;;;;;;5102609;27;20212;-74
2021/03/13 12:24:28;;;;;;;36.67;4.60;;;7.20;99.90;;;;;;5108177;28;20553;-73
2021/03/13 12:26:55;;;;;;;42.25;5.20;;;7.20;99.90;;;;;;5107442;27;20193;-73
2021/03/13 12:29:22;;;;;;;41.70;5.28;;;7.20;99.90;;;;;;5108981;28;20197;-73
2021/03/13 12:31:49;;;;;;;33.47;4.35;;;7.30;99.90;;;;;;5088084;28;20201;-73
2021/03/13 12:34:15;;;;;;;31.23;3.75;;;7.30;99.90;;;;;;5106500;27;20204;-73
2021/03/13 12:36:42;;;;;;;40.72;5.32;;;7.40;99.90;;;;;;5105869;27;20228;-73
2021/03/13 12:39:09;;;;;;;34.70;4.43;;;7.40;99.90;;;;;;5104623;27;20696;-73
2021/03/13 12:41:36;;;;;;;33.72;4.63;;;7.50;99.90;;;;;;5109317;27;20212;-73
2021/03/13 12:44:04;;;;;;;33.55;4.53;;;7.60;99.90;;;;;;5085284;27;20723;-73
2021/03/13 12:46:31;;;;;;;34.15;4.40;;;7.70;99.90;;;;;;5091390;28;20589;-72
2021/03/13 12:48:58;;;;;;;35.67;5.30;;;7.70;99.90;;;;;;5105610;27;20197;-75
2021/03/13 12:51:24;;;;;;;26.92;4.60;;;7.80;99.90;;;;;;5105375;27;20205;-73
2021/03/13 12:53:51;;;;;;;36.83;4.10;;;7.90;99.90;;;;;;5087662;28;20209;-73
2021/03/13 12:56:17;;;;;;;27.70;4.60;;;7.90;99.90;;;;;;5104333;27;20201;-73
2021/03/13 12:58:45;;;;;;;28.63;3.58;;;8.00;99.90;;;;;;5106118;27;20653;-74
2021/03/13 13:01:11;;;;;;;30.65;4.35;;;8.00;99.90;;;;;;5106383;28;20220;-74
2021/03/13 13:03:37;;;;;;;28.02;3.58;;;8.00;99.90;;;;;;5106033;28;20700;-74